La Ronge, Canada
Current Conditions -  °F | °C
As of 11:00 PM on Monday 20 Oct 2014 (Local Time) from CYVC Reporting Station
Clear Clear  
Wind Chill: 41°   Ceiling: Unl
Heat Index: 45°   Visibility: 15mi
Dew Point: 41°   Wind: 6mph
Humidity: 87%   Direction: 80°E
Pressure: 29.59"   Gusts: NA
Location:  55.11°N, 105.3°W
Report Text: CYVC 210500Z 08005KT 15SM SKC 07/05 A2959 RMK SLP031
Loading
Personal Weather Stations






























Interactive Weather Map
Tropical Storm Tracking
New forecast layout! Learn more

10-Day Weather Forecast

Advertisements
Track Severe Weather on mobile